East Texas Regional Airport
KGGG : now visible

Airfield :











YOU CAN JOIN US ON...

 
LOGIN :

Register | Disclaimer

   EN    FR    IT 

 









Legend :    VFR   Marginal VFR   IFR   Intensive IFR   Very Intensive IFR
Visi :
Ceiling :
>= 8 km
>= 3000ft
5 to 8 km
1000 to 3000 ft
1500m to 5 km
500 to 1000 ft
800 to 1500m
200 to 500 ft
< 800m
< 200 ft
Symbols :   Thunderstorms  Fog  Heavy snow  Heavy precipitations  Wind > 20 kt






- Airport Elevation : 365 ft
- IATA code : GGG


KGGG - East Texas Regional

CURRENT METAR :
  • 261700Z 28004KT 10SM SCT022 SCT029 SCT100 24/18 A2991 RMK AO2 T02390178

EXPIRED METARs :
  • 261653Z 27007KT 10SM BKN014 BKN110 24/18 A2991 RMK AO2 SLP122 T02390178
  • 261553Z 28006KT 10SM BKN013 BKN110 22/18 A2991 RMK AO2 SLP125 T02170178
  • 261453Z 29005KT 10SM FEW120 21/18 A2990 RMK AO2 SLP120 T02060183 53001

TAF KGGG
Valid from the 26 at 18:00 until the 27 at 18:00 UTC


261741Z 2618/2718 28006KT P6SM SCT025 BKN035
TEMPO 2618/2620 BKN030
FM262100 28006KT P6SM BKN040
FM270100 VRB03KT P6SM SCT045 SCT250
FM270600 VRB03KT P6SM SCT250
FM271500 28005KT P6SM SCT017 SCT250
KZFW FIR / North America



MET'MAP, your aeronautical weather chart ! - Copyright ORBIFLY December 2007 - Disclaimer

ORBIFLY MET'MAP TEAM :

Programming & Development : Alexandra Zaïnal
Concept & original design : Baudouin d'Aumeries
Assistance for programming : Marc-Olivier Méhu
Technical & hardware support : Manuel Goepfert

Contact : metmap@orbifly.com




SOURCES & CREDITS :

   NOAA       Earth
Advisory